Goshen, Connecticut
Current Conditions -  °F | °C
As of 3:45 PM on Saturday 25 Oct 2014 (Local Time) from KOXC Reporting Station
Clear Clear  
Wind Chill: 63°   Ceiling: Unl
Heat Index: 63°   Visibility: 10mi
Dew Point: 41°   Wind: 7mph
Humidity: 45%   Direction: 280°W
Pressure: 29.67"   Gusts: 17mph
Location:  41.83°N, 73.23°W
Report Text: KOXC 251945Z 28006G15KT 10SM CLR 17/05 A2967
Loading
Personal Weather Stations






























Interactive Weather Map
Tropical Storm Tracking
New forecast layout! Learn more

10-Day Weather Forecast

Advertisements
Track Severe Weather on mobile